This is the latest recevied weather packets stored in our database for station/object KM4CNW. If no packets are shown the sender has not sent any weather packets the latest 10 day(s).
| Time | Temp. | Humidity | Pressure | Rain* | Wind** | Luminosity | Snow |
|---|---|---|---|---|---|---|---|
| 1777576921 | 25° C | 38% | 1003.7 hPa | 0 mm | - | 828 W/m² | - |
| 1777576616 | 23.89° C | 39% | 1003.9 hPa | 0 mm | - | 836 W/m² | - |
| 1777576312 | 22.78° C | 44% | 1003.9 hPa | 0 mm | - | 847 W/m² | - |
| 1777573881 | 24.44° C | 42% | 1004 hPa | 0 mm | - | 941 W/m² | - |
| 1777573576 | 23.89° C | 43% | 1004 hPa | 0 mm | - | 928 W/m² | - |
| 1777573273 | 23.89° C | 44% | 1004 hPa | 0 mm | - | 963 W/m² | - |
| 1777572969 | 23.33° C | 45% | 1004 hPa | 0 mm | - | 900 W/m² | - |
| 1777572665 | 22.78° C | 46% | 1003.9 hPa | 0 mm | - | 963 W/m² | - |
| 1777572062 | 24.44° C | 45% | 1004.3 hPa | 0 mm | - | 443 W/m² | - |
| 1777570245 | 22.78° C | 48% | 1004.1 hPa | 0 mm | - | 1002 W/m² | - |
| 1777569945 | 23.33° C | 43% | 1004.1 hPa | 0 mm | - | 970 W/m² | - |
| 1777569641 | 22.22° C | 49% | 1004 hPa | 0 mm | - | 971 W/m² | - |
| 1777569337 | 22.78° C | 46% | 1004.1 hPa | 0 mm | - | 189 W/m² | - |
| 1777568428 | 22.78° C | 45% | 1004.2 hPa | 0 mm | - | 210 W/m² | - |
| 1777568125 | 22.78° C | 45% | 1004.5 hPa | 0 mm | - | 906 W/m² | - |
| 1777566913 | 22.22° C | 45% | 1004.6 hPa | 0 mm | - | 883 W/m² | - |
| 1777566611 | 22.22° C | 46% | 1004.5 hPa | 0 mm | - | 874 W/m² | - |
| 1777566006 | 21.67° C | 45% | 1004.6 hPa | 0 mm | - | 860 W/m² | - |
| 1777565094 | 21.67° C | 49% | 1004.6 hPa | 0 mm | - | 835 W/m² | - |
| 1777563573 | 20.56° C | 51% | 1004.9 hPa | 0 mm | - | 792 W/m² | - |
| 1777563273 | 20.56° C | 50% | 1005 hPa | 0 mm | - | 780 W/m² | - |
| 1777562970 | 20.56° C | 52% | 1005.2 hPa | 0 mm | - | 768 W/m² | - |
| 1777562666 | 20.56° C | 54% | 1005.2 hPa | 0 mm | - | 753 W/m² | - |
| 1777562366 | 20.56° C | 52% | 1005.4 hPa | 0 mm | - | 741 W/m² | - |
| 1777559330 | 16.11° C | 78% | 1005.7 hPa | 0 mm | - | 204 W/m² | - |
* Rain latest hour (hover to see other rain measurements)
** Current wind speed in m/s (hover to see current wind gust speed)